Time;durP1;ratioP1;P1;durP2;ratioP2;P2;SDS_P1;SDS_P2;PMS_P1;PMS_P2;Temp;Humidity;BMP_temperature;BMP_pressure;BME280_temperature;BME280_humidity;BME280_pressure;Samples;Min_cycle;Max_cycle;Signal;HPM_P1;HPM_P2
2022/01/12 00:00:28;;;;;;;70.97;32.28;;;;;;;-2.58;100.00;102812.28;5044198;28;20096;-66
2022/01/12 00:02:55;;;;;;;68.35;31.65;;;;;;;-2.48;100.00;102821.16;5044802;28;20132;-64
2022/01/12 00:05:23;;;;;;;68.40;32.15;;;;;;;-2.49;100.00;102816.84;5025931;28;20074;-64
2022/01/12 00:07:51;;;;;;;66.93;31.15;;;;;;;-2.56;100.00;102820.97;5039108;28;20179;-64
2022/01/12 00:10:19;;;;;;;67.55;31.77;;;;;;;-2.57;100.00;102823.47;5041726;28;20057;-64
2022/01/12 00:12:46;;;;;;;68.85;31.15;;;;;;;-2.56;100.00;102823.53;5045900;28;20080;-64
2022/01/12 00:15:14;;;;;;;74.35;33.70;;;;;;;-2.62;100.00;102819.88;5038159;28;20049;-65
2022/01/12 00:17:42;;;;;;;65.10;32.92;;;;;;;-2.65;100.00;102812.09;5050970;28;20448;-65
2022/01/12 00:20:10;;;;;;;71.15;33.25;;;;;;;-2.66;100.00;102811.19;5028058;28;20402;-63
2022/01/12 00:22:39;;;;;;;73.57;34.28;;;;;;;-2.63;100.00;102803.53;5051161;28;20052;-64
2022/01/12 00:25:25;;;;;;;75.47;34.63;;;;;;;-2.67;100.00;102801.69;5025253;28;20554;-64
2022/01/12 00:33:23;;;;;;;73.28;32.22;;;;;;;-2.63;100.00;102792.38;5042029;28;20065;-65
2022/01/12 00:35:53;;;;;;;68.47;32.42;;;;;;;-2.62;100.00;102797.56;5030947;28;20061;-65
2022/01/12 00:38:22;;;;;;;68.43;32.67;;;;;;;-2.58;100.00;102799.41;5028685;28;20049;-64
2022/01/12 00:40:51;;;;;;;72.05;34.22;;;;;;;-2.51;100.00;102797.03;5042835;28;20592;-64
2022/01/12 00:43:19;;;;;;;71.20;33.55;;;;;;;-2.49;100.00;102795.34;5044562;28;20048;-62
2022/01/12 00:45:47;;;;;;;78.10;34.40;;;;;;;-2.55;100.00;102796.91;5044366;28;20048;-64
2022/01/12 00:48:16;;;;;;;68.60;31.45;;;;;;;-2.44;100.00;102794.66;5049915;28;20055;-63
2022/01/12 00:50:45;;;;;;;60.92;31.10;;;;;;;-2.41;100.00;102789.59;5043937;28;20405;-65
2022/01/12 00:53:12;;;;;;;71.10;31.38;;;;;;;-2.36;100.00;102793.16;5042376;28;20356;-64
2022/01/12 00:55:39;;;;;;;65.88;32.80;;;;;;;-2.35;100.00;102801.78;5029121;28;20049;-64
2022/01/12 00:58:06;;;;;;;64.15;30.80;;;;;;;-2.41;100.00;102806.78;5037914;28;20045;-65
2022/01/12 01:00:33;;;;;;;64.13;30.80;;;;;;;-2.36;100.00;102810.34;5045633;28;20053;-63
2022/01/12 01:03:01;;;;;;;66.95;31.95;;;;;;;-2.44;100.00;102811.84;5050300;28;20540;-65
2022/01/12 01:05:31;;;;;;;69.15;31.55;;;;;;;-2.36;100.00;102805.19;5045479;28;20143;-65
2022/01/12 01:07:58;;;;;;;70.72;30.52;;;;;;;-2.39;100.00;102810.25;5042533;28;20131;-65
2022/01/12 01:11:00;;;;;;;61.95;30.30;;;;;;;-2.46;100.00;102821.25;5049321;28;20057;-65
2022/01/12 01:13:25;;;;;;;64.60;31.33;;;;;;;-2.50;100.00;102815.09;5047121;28;20652;-65
2022/01/12 01:16:05;;;;;;;69.13;32.17;;;;;;;-2.45;100.00;102813.53;5046634;28;20057;-65
2022/01/12 01:27:08;;;;;;;78.47;32.58;;;;;;;-2.33;100.00;102807.88;5044432;28;20059;-66
2022/01/12 01:29:35;;;;;;;64.80;30.20;;;;;;;-2.29;100.00;102801.97;5038184;28;20056;-64
2022/01/12 01:32:03;;;;;;;64.70;30.77;;;;;;;-2.25;100.00;102795.19;5047401;28;20037;-64
2022/01/12 01:34:32;;;;;;;69.05;32.42;;;;;;;-2.26;100.00;102803.75;5043235;28;20197;-64
2022/01/12 01:36:59;;;;;;;73.47;31.75;;;;;;;-2.25;100.00;102801.25;5012177;28;20405;-64
2022/01/12 01:39:27;;;;;;;67.28;33.08;;;;;;;-2.20;100.00;102798.78;5044625;28;20143;-64
2022/01/12 01:42:01;;;;;;;62.35;29.45;;;;;;;-2.12;100.00;102807.59;5047178;28;20493;-64
2022/01/12 01:53:17;;;;;;;60.83;28.25;;;;;;;-2.24;100.00;102802.97;5041410;28;20416;-64
2022/01/12 01:55:41;;;;;;;62.17;28.08;;;;;;;-2.21;100.00;102792.72;5051049;28;20132;-65
2022/01/12 01:58:09;;;;;;;64.05;27.98;;;;;;;-2.13;100.00;102790.38;5044978;28;20070;-64
2022/01/12 02:00:37;;;;;;;58.25;25.17;;;;;;;-2.12;100.00;102802.44;5031015;28;20057;-63
2022/01/12 02:03:04;;;;;;;54.92;26.85;;;;;;;-2.16;100.00;102806.66;5031935;28;20169;-62
2022/01/12 02:05:32;;;;;;;55.78;25.48;;;;;;;-2.26;100.00;102808.91;5047462;28;20531;-64
2022/01/12 02:08:00;;;;;;;59.45;25.58;;;;;;;-2.32;100.00;102809.63;5044089;28;20052;-63
2022/01/12 02:10:27;;;;;;;59.92;27.42;;;;;;;-2.29;100.00;102799.41;5045142;28;20063;-64
2022/01/12 02:12:55;;;;;;;53.78;23.52;;;;;;;-2.32;100.00;102802.75;5046793;28;20045;-64
2022/01/12 02:15:25;;;;;;;53.13;25.15;;;;;;;-2.35;100.00;102797.50;5040251;28;20141;-64
2022/01/12 02:39:43;;;;;;;67.93;28.20;;;;;;;-2.10;100.00;102788.75;5046698;28;20072;-64
2022/01/12 02:40:04;;;;;;;66.10;26.88;;;;;;;-2.06;100.00;102795.75;5041755;28;20577;-64
2022/01/12 02:42:32;;;;;;;63.58;27.80;;;;;;;-2.16;100.00;102793.75;5037858;28;20097;-64
2022/01/12 02:50:45;;;;;;;63.80;26.35;;;;;;;-2.13;100.00;102783.50;5045006;28;20462;-64
2022/01/12 02:56:00;;;;;;;64.30;26.30;;;;;;;-2.20;100.00;102781.59;5042209;28;20053;-65
2022/01/12 02:58:27;;;;;;;71.88;29.85;;;;;;;-2.18;100.00;102776.47;5042919;28;20136;-64
2022/01/12 03:01:19;;;;;;;68.25;27.80;;;;;;;-2.15;100.00;102782.59;5045318;28;20133;-64
2022/01/12 03:03:49;;;;;;;74.97;28.10;;;;;;;-2.16;100.00;102795.44;5042436;28;20053;-64
2022/01/12 03:06:21;;;;;;;74.88;28.98;;;;;;;-2.17;100.00;102797.16;5041354;28;20059;-64
2022/01/12 03:08:48;;;;;;;77.20;28.02;;;;;;;-2.14;100.00;102784.34;5043807;28;20118;-63
2022/01/12 03:11:17;;;;;;;73.03;29.40;;;;;;;-2.12;100.00;102779.22;5042729;28;20064;-64
2022/01/12 03:13:44;;;;;;;75.75;28.40;;;;;;;-2.07;100.00;102790.56;5046982;28;20602;-64
2022/01/12 03:16:17;;;;;;;73.68;29.85;;;;;;;-2.01;100.00;102785.56;5029881;28;20140;-64
2022/01/12 03:18:47;;;;;;;65.63;26.95;;;;;;;-2.01;100.00;102787.28;5042757;28;20106;-64
2022/01/12 03:21:16;;;;;;;74.68;28.60;;;;;;;-1.98;100.00;102775.34;5027344;28;20055;-64
2022/01/12 03:23:43;;;;;;;73.53;28.80;;;;;;;-1.92;100.00;102779.78;5043378;28;20076;-64
2022/01/12 03:26:11;;;;;;;74.15;28.23;;;;;;;-1.94;100.00;102771.97;5042177;28;20079;-65
2022/01/12 03:28:39;;;;;;;74.72;28.38;;;;;;;-1.96;100.00;102771.06;5038411;28;20052;-65
2022/01/12 03:31:19;;;;;;;74.72;29.02;;;;;;;-1.98;100.00;102774.44;5013257;28;20041;-64
2022/01/12 03:39:04;;;;;;;81.10;28.60;;;;;;;-1.91;100.00;102779.81;5050112;28;20049;-65
2022/01/12 03:41:34;;;;;;;76.40;28.83;;;;;;;-1.82;100.00;102781.75;5042005;28;20048;-65
2022/01/12 03:44:04;;;;;;;76.93;29.58;;;;;;;-1.83;100.00;102774.84;5024489;28;20053;-64
2022/01/12 03:46:35;;;;;;;77.18;30.08;;;;;;;-1.94;100.00;102778.84;5043948;28;20053;-64
2022/01/12 03:49:03;;;;;;;91.72;32.55;;;;;;;-1.95;100.00;102784.84;5039073;28;20049;-64
2022/01/12 03:51:30;;;;;;;77.20;29.83;;;;;;;-1.94;100.00;102778.84;5032351;28;20442;-64
2022/01/12 03:53:58;;;;;;;80.85;30.73;;;;;;;-2.01;100.00;102779.53;5030905;28;20135;-65
2022/01/12 03:56:25;;;;;;;84.05;30.95;;;;;;;-1.98;100.00;102782.16;5047390;28;20052;-64
2022/01/12 03:58:52;;;;;;;80.53;31.13;;;;;;;-1.95;100.00;102780.56;5043108;28;20104;-64
2022/01/12 04:01:19;;;;;;;82.75;31.40;;;;;;;-1.90;100.00;102783.25;5050378;28;20085;-64
2022/01/12 04:03:58;;;;;;;82.93;32.13;;;;;;;-1.92;100.00;102784.94;5046559;28;20049;-64
2022/01/12 04:09:31;;;;;;;76.77;29.10;;;;;;;-1.75;100.00;102787.97;5042870;28;20183;-65
2022/01/12 04:11:58;;;;;;;71.32;28.20;;;;;;;-1.75;100.00;102786.28;5048087;28;20063;-65
2022/01/12 04:14:25;;;;;;;71.85;29.50;;;;;;;-1.74;100.00;102782.84;5045433;28;20139;-65
2022/01/12 04:16:52;;;;;;;64.88;26.13;;;;;;;-1.68;100.00;102788.16;5049348;28;20167;-65
2022/01/12 04:19:20;;;;;;;67.28;25.60;;;;;;;-1.76;100.00;102779.31;5046558;28;20680;-64
2022/01/12 04:21:49;;;;;;;63.38;25.60;;;;;;;-1.80;100.00;102770.66;5048635;28;20049;-64
2022/01/12 04:24:16;;;;;;;66.90;28.55;;;;;;;-1.64;100.00;102773.63;5046801;28;20059;-64
2022/01/12 04:26:43;;;;;;;62.25;26.90;;;;;;;-1.66;100.00;102773.59;5049029;28;20140;-65
2022/01/12 04:29:11;;;;;;;69.10;26.70;;;;;;;-1.60;100.00;102776.31;5045569;28;20051;-64
2022/01/12 04:31:38;;;;;;;65.38;27.45;;;;;;;-1.65;100.00;102775.34;5029397;28;20053;-64
2022/01/12 04:34:05;;;;;;;66.82;26.05;;;;;;;-1.60;100.00;102776.31;5045067;28;20053;-64
2022/01/12 04:36:33;;;;;;;69.53;26.10;;;;;;;-1.65;100.00;102779.63;5047381;28;20262;-64
2022/01/12 04:39:00;;;;;;;65.15;26.55;;;;;;;-1.68;100.00;102772.66;5046299;28;20144;-64
2022/01/12 04:41:27;;;;;;;64.85;25.88;;;;;;;-1.70;100.00;102776.06;5046735;28;20049;-64
2022/01/12 04:43:56;;;;;;;65.30;26.05;;;;;;;-1.70;100.00;102771.75;5023626;28;20049;-64
2022/01/12 04:46:32;;;;;;;61.92;24.58;;;;;;;-1.76;100.00;102783.63;5029232;28;20533;-64
2022/01/12 04:49:47;;;;;;;69.75;26.85;;;;;;;-1.71;100.00;102782.03;5042112;28;20132;-65
2022/01/12 04:51:53;;;;;;;66.70;25.92;;;;;;;-1.68;100.00;102783.00;5040471;28;20593;-63
2022/01/12 04:54:20;;;;;;;63.25;25.88;;;;;;;-1.72;100.00;102788.03;5043724;28;20049;-64
2022/01/12 04:56:47;;;;;;;62.33;25.23;;;;;;;-1.70;100.00;102778.63;5051582;28;20088;-63
2022/01/12 04:59:14;;;;;;;68.30;25.30;;;;;;;-1.69;100.00;102773.50;5051199;28;20049;-64
2022/01/12 05:01:51;;;;;;;68.75;26.85;;;;;;;-1.70;100.00;102782.09;5009818;28;20053;-64
2022/01/12 05:07:23;;;;;;;74.90;27.98;;;;;;;-1.59;100.00;102787.53;5049986;28;20057;-63
2022/01/12 05:12:44;;;;;;;76.22;29.65;;;;;;;-1.65;100.00;102792.53;5043514;28;20075;-64
2022/01/12 05:12:51;;;;;;;76.95;29.60;;;;;;;-1.66;100.00;102783.94;5048260;28;20059;-64
2022/01/12 05:15:26;;;;;;;84.00;30.30;;;;;;;-1.63;100.00;102799.47;5041954;28;20418;-64
2022/01/12 05:17:54;;;;;;;79.13;29.75;;;;;;;-1.56;100.00;102790.19;5052794;28;20128;-64
2022/01/12 05:20:22;;;;;;;82.53;29.85;;;;;;;-1.62;100.00;102797.75;5027299;28;20504;-64
2022/01/12 05:22:49;;;;;;;76.57;29.17;;;;;;;-1.61;100.00;102790.06;5044909;28;20049;-64
2022/01/12 05:25:22;;;;;;;73.07;27.95;;;;;;;-1.52;100.00;102786.84;5042363;28;20081;-62
2022/01/12 05:27:49;;;;;;;82.68;29.05;;;;;;;-1.48;100.00;102792.97;5037757;28;20521;-63
2022/01/12 05:30:16;;;;;;;74.03;29.67;;;;;;;-1.48;100.00;102793.84;5044701;28;20537;-63
2022/01/12 05:32:44;;;;;;;74.38;28.88;;;;;;;-1.45;100.00;102783.56;5046235;28;20045;-63
2022/01/12 05:35:13;;;;;;;69.50;26.77;;;;;;;-1.43;100.00;102781.06;5043804;28;20120;-62
2022/01/12 05:37:40;;;;;;;79.82;30.08;;;;;;;-1.35;100.00;102774.34;5027443;28;20083;-64
2022/01/12 05:40:08;;;;;;;77.35;30.08;;;;;;;-1.30;100.00;102772.78;5042879;28;20049;-64
2022/01/12 05:42:36;;;;;;;78.35;28.60;;;;;;;-1.34;100.00;102776.13;5042552;28;20565;-63
2022/01/12 05:45:05;;;;;;;74.82;28.75;;;;;;;-1.44;100.00;102780.19;5025762;28;20060;-64
2022/01/12 05:50:04;;;;;;;75.97;30.50;;;;;;;-1.47;100.00;102762.00;5024467;28;20040;-63
2022/01/12 05:52:31;;;;;;;78.15;27.42;;;;;;;-1.46;100.00;102756.00;5045586;28;20049;-64
2022/01/12 05:54:59;;;;;;;73.05;27.77;;;;;;;-1.37;100.00;102747.59;5041739;28;20056;-63
2022/01/12 05:57:26;;;;;;;67.03;25.08;;;;;;;-1.40;100.00;102756.16;5047220;28;20064;-63
2022/01/12 05:59:54;;;;;;;63.38;25.15;;;;;;;-1.39;100.00;102746.72;5042831;28;20136;-64
2022/01/12 06:02:21;;;;;;;65.07;26.08;;;;;;;-1.41;100.00;102754.41;5030500;28;20139;-64
2022/01/12 06:04:48;;;;;;;71.70;27.15;;;;;;;-1.42;100.00;102756.97;5041110;28;20045;-64
2022/01/12 06:07:16;;;;;;;69.45;26.40;;;;;;;-1.45;100.00;102760.31;5048427;28;20231;-63
2022/01/12 06:09:43;;;;;;;60.85;24.63;;;;;;;-1.41;100.00;102757.00;5042259;28;20057;-63
2022/01/12 06:12:11;;;;;;;66.07;27.52;;;;;;;-1.44;100.00;102756.94;5046025;28;20357;-63
2022/01/12 06:14:38;;;;;;;70.40;27.00;;;;;;;-1.48;100.00;102751.66;5042639;28;20044;-64
2022/01/12 06:17:05;;;;;;;68.28;25.83;;;;;;;-1.49;100.00;102755.03;5049871;28;20128;-63
2022/01/12 06:19:33;;;;;;;66.85;26.42;;;;;;;-1.56;100.00;102756.63;5043312;28;20067;-65
2022/01/12 06:22:00;;;;;;;67.90;25.10;;;;;;;-1.54;100.00;102750.63;5045545;28;20053;-63
2022/01/12 06:24:28;;;;;;;73.40;25.15;;;;;;;-1.48;100.00;102747.34;5039780;28;20517;-63
2022/01/12 06:26:56;;;;;;;63.33;25.25;;;;;;;-1.55;100.00;102763.53;5037627;28;20625;-63
2022/01/12 06:29:38;;;;;;;66.13;24.90;;;;;;;-1.63;100.00;102754.69;5012592;28;20401;-63
2022/01/12 06:32:07;;;;;;;68.72;25.40;;;;;;;-1.64;100.00;102760.72;5039560;28;20045;-63
2022/01/12 06:34:34;;;;;;;65.65;25.15;;;;;;;-1.64;100.00;102753.84;5040555;28;20049;-63
2022/01/12 06:37:02;;;;;;;65.25;23.88;;;;;;;-1.66;100.00;102764.97;5035083;28;20196;-64
2022/01/12 06:39:29;;;;;;;64.63;23.98;;;;;;;-1.64;100.00;102768.47;5024594;28;20774;-64
2022/01/12 06:41:56;;;;;;;63.15;24.15;;;;;;;-1.57;100.00;102771.25;5045918;28;20531;-68
2022/01/12 06:44:25;;;;;;;61.42;24.33;;;;;;;-1.62;100.00;102782.28;5023327;28;20136;-63
2022/01/12 06:46:53;;;;;;;62.45;26.25;;;;;;;-1.55;100.00;102781.59;5045439;28;20049;-66
2022/01/12 06:49:20;;;;;;;57.17;23.00;;;;;;;-1.50;100.00;102772.25;5048949;28;20049;-64
2022/01/12 06:51:47;;;;;;;59.70;23.40;;;;;;;-1.52;100.00;102767.91;5050994;28;20056;-65
2022/01/12 06:54:16;;;;;;;59.13;24.15;;;;;;;-1.50;100.00;102772.25;5020079;28;20128;-63
2022/01/12 06:56:43;;;;;;;61.72;25.40;;;;;;;-1.45;100.00;102773.25;5024117;28;20068;-64
2022/01/12 06:59:10;;;;;;;67.53;24.52;;;;;;;-1.51;100.00;102774.81;5044132;28;20552;-62
2022/01/12 07:01:38;;;;;;;56.38;24.77;;;;;;;-1.50;100.00;102779.13;5043068;28;20139;-63
2022/01/12 07:04:05;;;;;;;64.88;24.15;;;;;;;-1.48;100.00;102780.94;5040953;28;20064;-65
2022/01/12 07:06:34;;;;;;;60.88;24.50;;;;;;;-1.44;100.00;102779.28;5043103;28;20140;-64
2022/01/12 07:09:02;;;;;;;65.90;24.50;;;;;;;-1.40;100.00;102787.16;5039801;28;20148;-64
2022/01/12 07:11:30;;;;;;;62.30;24.17;;;;;;;-1.38;100.00;102795.81;5045553;28;20082;-64
2022/01/12 07:13:57;;;;;;;63.35;23.92;;;;;;;-1.33;100.00;102788.19;5046251;28;20071;-63
2022/01/12 07:16:24;;;;;;;63.92;24.05;;;;;;;-1.30;100.00;102794.31;5026008;28;20060;-65
2022/01/12 07:18:52;;;;;;;69.18;26.17;;;;;;;-1.26;100.00;102784.94;5041329;28;20369;-63
2022/01/12 07:21:19;;;;;;;62.10;24.00;;;;;;;-1.22;100.00;102781.56;5042911;28;20365;-63
2022/01/12 07:23:46;;;;;;;62.70;26.42;;;;;;;-1.18;100.00;102792.84;5046171;28;20345;-64
2022/01/12 07:26:13;;;;;;;66.63;25.50;;;;;;;-1.21;100.00;102790.22;5052795;28;20386;-64
2022/01/12 07:28:40;;;;;;;63.22;25.00;;;;;;;-1.22;100.00;102796.19;5050711;28;20086;-64
2022/01/12 07:31:07;;;;;;;65.95;24.73;;;;;;;-1.19;100.00;102796.28;5028847;28;20127;-64
2022/01/12 07:33:35;;;;;;;69.45;24.42;;;;;;;-1.18;100.00;102788.56;5045173;28;20506;-64
2022/01/12 07:36:03;;;;;;;56.78;22.67;;;;;;;-1.10;100.00;102787.03;5027598;28;20044;-64
2022/01/12 07:38:30;;;;;;;58.90;23.63;;;;;;;-1.10;100.00;102784.44;5029768;28;20073;-64
2022/01/12 07:40:57;;;;;;;58.17;23.00;;;;;;;-0.92;100.00;102793.47;5049662;28;20124;-63
2022/01/12 07:43:25;;;;;;;61.88;24.20;;;;;;;-0.94;100.00;102795.16;5050073;28;20048;-64
2022/01/12 07:45:52;;;;;;;58.97;23.00;;;;;;;-0.87;100.00;102804.78;5043879;28;20049;-64
2022/01/12 07:48:25;;;;;;;60.58;24.50;;;;;;;-0.97;100.00;102805.44;5031514;28;20061;-64
2022/01/12 07:50:52;;;;;;;63.83;25.42;;;;;;;-1.00;100.00;102802.75;5033401;28;20048;-63
2022/01/12 07:53:19;;;;;;;67.38;26.05;;;;;;;-0.99;100.00;102807.09;5047810;28;20063;-63
2022/01/12 07:55:46;;;;;;;65.10;24.65;;;;;;;-0.94;100.00;102806.38;5043803;28;20082;-64
2022/01/12 07:58:13;;;;;;;67.45;25.67;;;;;;;-0.84;100.00;102810.91;5044783;28;20513;-63
2022/01/12 08:00:40;;;;;;;65.82;25.25;;;;;;;-0.74;100.00;102816.28;5045143;28;20063;-63
2022/01/12 08:03:08;;;;;;;65.22;24.20;;;;;;;-0.63;100.00;102809.63;5046500;28;20141;-64
2022/01/12 08:05:35;;;;;;;58.97;25.35;;;;;;;-0.68;100.00;102811.25;5045510;28;20053;-64
2022/01/12 08:08:02;;;;;;;61.42;24.35;;;;;;;-0.70;100.00;102813.81;5049475;28;20131;-64
2022/01/12 08:10:30;;;;;;;64.32;24.73;;;;;;;-0.64;100.00;102818.25;5045786;28;20064;-63
2022/01/12 08:12:57;;;;;;;59.50;24.08;;;;;;;-0.56;100.00;102825.34;5018069;28;20049;-63
2022/01/12 08:15:24;;;;;;;68.60;26.38;;;;;;;-0.46;100.00;102836.75;5027194;28;20063;-63
2022/01/12 08:17:51;;;;;;;63.72;25.27;;;;;;;-0.34;100.00;102843.94;5049921;28;20061;-63
2022/01/12 08:20:22;;;;;;;61.35;24.15;;;;;;;-0.34;100.00;102837.03;5030865;28;20147;-63
2022/01/12 08:22:49;;;;;;;62.50;24.17;;;;;;;-0.27;100.00;102823.41;5046624;28;20052;-63
2022/01/12 08:25:17;;;;;;;61.38;25.15;;;;;;;-0.30;100.00;102825.91;5028886;28;20147;-64
2022/01/12 08:27:44;;;;;;;64.90;25.02;;;;;;;-0.22;100.00;102817.44;5050110;28;20651;-64
2022/01/12 08:30:19;;;;;;;71.30;25.58;;;;;;;-0.19;100.00;102822.66;5046448;28;20521;-64
2022/01/12 08:32:48;;;;;;;67.90;25.10;;;;;;;-0.13;100.00;102831.44;5045856;28;20407;-64
2022/01/12 08:35:16;;;;;;;64.25;26.05;;;;;;;-0.13;100.00;102826.28;5014206;28;20029;-64
2022/01/12 08:37:44;;;;;;;67.53;25.90;;;;;;;0.10;100.00;102831.03;5028673;28;20521;-64
2022/01/12 08:40:15;;;;;;;65.95;24.30;;;;;;;0.09;100.00;102829.25;5041897;28;20505;-64
2022/01/12 08:42:43;;;;;;;70.65;26.80;;;;;;;0.09;100.00;102831.84;5046648;28;20140;-64
2022/01/12 08:45:12;;;;;;;62.55;25.38;;;;;;;0.15;100.00;102832.00;5048392;28;20145;-64
2022/01/12 08:47:39;;;;;;;65.38;25.58;;;;;;;0.24;100.00;102842.53;5031535;28;20074;-64
2022/01/12 08:50:07;;;;;;;65.20;27.05;;;;;;;0.28;100.00;102846.06;5040991;28;20056;-64
2022/01/12 08:52:34;;;;;;;59.45;23.77;;;;;;;0.26;100.00;102835.66;5048204;28;20216;-64
2022/01/12 08:55:03;;;;;;;64.07;26.70;;;;;;;0.33;100.00;102834.94;5046676;28;20075;-64
2022/01/12 08:57:30;;;;;;;62.58;24.48;;;;;;;0.44;100.00;102833.41;5027405;28;20164;-64
2022/01/12 08:59:58;;;;;;;59.55;24.38;;;;;;;0.47;100.00;102836.06;5027276;28;20545;-64
2022/01/12 09:02:25;;;;;;;64.70;24.75;;;;;;;0.71;100.00;102837.31;5052552;28;20068;-64
2022/01/12 09:04:52;;;;;;;62.83;24.98;;;;;;;0.87;100.00;102847.13;5046253;28;20373;-64
2022/01/12 09:07:20;;;;;;;66.38;25.55;;;;;;;1.06;100.00;102839.63;5044672;28;20057;-65
2022/01/12 09:09:47;;;;;;;62.85;23.92;;;;;;;1.00;100.00;102835.25;5027427;28;20093;-64
2022/01/12 09:12:14;;;;;;;60.08;23.58;;;;;;;1.08;100.00;102838.84;5045469;28;20119;-64
2022/01/12 09:14:41;;;;;;;63.75;24.80;;;;;;;1.00;100.00;102841.28;5043347;28;20152;-64
2022/01/12 09:17:17;;;;;;;61.28;25.30;;;;;;;1.01;100.00;102840.44;5047677;28;20067;-64
2022/01/12 09:19:46;;;;;;;60.65;24.08;;;;;;;1.00;100.00;102854.25;5044486;28;20515;-64
2022/01/12 09:22:14;;;;;;;60.20;25.67;;;;;;;1.14;100.00;102846.69;5042346;28;20572;-64
2022/01/12 09:24:42;;;;;;;64.82;25.38;;;;;;;1.22;100.00;102839.91;5048836;28;20053;-64
2022/01/12 09:27:09;;;;;;;70.75;25.98;;;;;;;1.27;100.00;102835.66;5038121;28;20076;-64
2022/01/12 09:29:37;;;;;;;71.28;26.45;;;;;;;1.29;100.00;102825.28;5045138;28;20416;-64
2022/01/12 09:32:04;;;;;;;60.22;24.70;;;;;;;1.31;100.00;102836.59;5047938;28;20045;-64
2022/01/12 09:34:31;;;;;;;58.72;24.70;;;;;;;1.41;100.00;102835.00;5026896;28;20049;-64
2022/01/12 09:36:58;;;;;;;63.63;23.80;;;;;;;1.57;100.00;102828.28;5045246;28;20061;-64
2022/01/12 09:39:25;;;;;;;64.20;24.45;;;;;;;1.61;100.00;102825.75;5022483;28;20053;-64
2022/01/12 09:41:52;;;;;;;63.38;25.15;;;;;;;1.64;100.00;102824.91;5048680;28;20525;-64
2022/01/12 09:44:20;;;;;;;61.40;24.45;;;;;;;1.63;100.00;102818.00;5038994;28;20053;-64
2022/01/12 09:46:47;;;;;;;61.92;24.02;;;;;;;1.67;100.00;102830.16;5041356;28;20057;-64
2022/01/12 09:49:14;;;;;;;56.83;23.80;;;;;;;1.73;100.00;102828.50;5048512;28;20048;-64
2022/01/12 09:51:41;;;;;;;63.30;24.80;;;;;;;1.70;100.00;102820.66;5048574;28;20136;-63
2022/01/12 09:54:10;;;;;;;62.42;24.48;;;;;;;1.73;100.00;102820.72;5044996;28;20055;-63
2022/01/12 09:56:37;;;;;;;56.88;23.05;;;;;;;1.78;100.00;102812.97;5048253;28;20627;-63
2022/01/12 09:59:04;;;;;;;53.97;21.33;;;;;;;1.71;100.00;102817.25;5026844;28;20052;-63
2022/01/12 10:01:40;;;;;;;57.42;21.67;;;;;;;1.69;100.00;102808.53;5047922;28;20484;-63
2022/01/12 10:04:15;;;;;;;58.97;23.50;;;;;;;1.74;100.00;102798.22;5032828;28;20469;-64
2022/01/12 10:06:47;;;;;;;58.87;23.17;;;;;;;1.84;100.00;102805.25;5046937;28;20437;-63
2022/01/12 10:09:15;;;;;;;57.30;20.80;;;;;;;2.01;100.00;102801.13;5029064;28;20469;-63
2022/01/12 10:11:50;;;;;;;49.28;20.73;;;;;;;1.94;100.00;102799.34;5035174;28;20055;-64
2022/01/12 10:14:18;;;;;;;56.03;22.35;;;;;;;1.92;100.00;102805.34;5030902;28;20057;-64
2022/01/12 10:16:55;;;;;;;48.92;21.13;;;;;;;2.05;100.00;102796.84;5032506;28;20079;-64
2022/01/12 10:19:27;;;;;;;54.63;21.48;;;;;;;2.22;100.00;102794.44;5026177;28;20092;-64
2022/01/12 10:21:56;;;;;;;48.33;20.42;;;;;;;2.21;100.00;102793.56;5028589;28;20110;-65
2022/01/12 10:24:24;;;;;;;50.95;21.58;;;;;;;2.32;100.00;102783.28;5021196;28;20132;-64
2022/01/12 10:26:52;;;;;;;57.78;23.33;;;;;;;2.59;100.00;102780.06;5050289;28;20580;-64
2022/01/12 10:29:21;;;;;;;51.35;20.13;;;;;;;2.63;100.00;102786.16;5042817;28;20143;-64
2022/01/12 10:31:54;;;;;;;50.90;20.60;;;;;;;2.47;100.00;102780.81;5024863;28;20071;-64
2022/01/12 10:34:27;;;;;;;43.75;19.40;;;;;;;2.36;100.00;102773.78;5022617;28;20048;-63
2022/01/12 10:36:55;;;;;;;49.22;18.95;;;;;;;2.44;100.00;102785.13;5014295;28;20071;-62
2022/01/12 10:39:26;;;;;;;45.80;18.88;;;;;;;2.58;100.00;102787.84;5038809;28;20100;-62
2022/01/12 10:41:57;;;;;;;41.47;18.33;;;;;;;2.44;100.00;102786.00;5041524;28;20149;-63
2022/01/12 10:44:31;;;;;;;44.53;18.90;;;;;;;2.35;100.00;102785.91;5041356;28;20122;-63
2022/01/12 10:47:05;;;;;;;49.33;20.38;;;;;;;2.53;100.00;102788.69;5046453;28;20159;-64
2022/01/12 10:49:38;;;;;;;40.75;19.45;;;;;;;2.49;100.00;102780.84;5038606;28;20080;-62
2022/01/12 10:52:08;;;;;;;46.17;20.40;;;;;;;2.46;100.00;102775.59;5030772;28;20481;-63
2022/01/12 10:54:43;;;;;;;43.47;18.77;;;;;;;2.43;100.00;102784.28;5046317;28;20082;-62
2022/01/12 10:57:31;;;;;;;43.65;20.15;;;;;;;2.54;100.00;102769.63;5045621;28;20053;-63
2022/01/12 11:00:10;;;;;;;41.15;18.73;;;;;;;2.69;100.00;102776.66;5025270;28;20489;-63
2022/01/12 11:02:39;;;;;;;43.97;19.52;;;;;;;2.66;100.00;102778.41;5042479;28;20509;-63
2022/01/12 11:05:07;;;;;;;43.72;18.70;;;;;;;2.66;100.00;102781.00;5045960;28;20072;-63
2022/01/12 11:07:35;;;;;;;40.95;18.85;;;;;;;2.72;100.00;102791.44;5043040;28;20049;-64
2022/01/12 11:10:05;;;;;;;46.38;18.48;;;;;;;2.67;100.00;102796.59;5045816;28;20140;-63
2022/01/12 11:12:35;;;;;;;40.80;19.83;;;;;;;2.56;100.00;102799.94;5023575;28;20045;-63
2022/01/12 11:15:07;;;;;;;47.60;19.63;;;;;;;2.55;100.00;102788.69;5018216;28;20057;-63
2022/01/12 11:17:34;;;;;;;47.33;20.05;;;;;;;2.60;100.00;102791.31;5045809;28;20065;-63
2022/01/12 11:20:14;;;;;;;46.10;20.38;;;;;;;2.59;100.00;102792.19;5022225;28;20132;-63
2022/01/12 11:23:02;;;;;;;38.08;19.67;;;;;;;2.56;100.00;102776.56;5043957;28;20048;-63
2022/01/12 11:25:31;;;;;;;47.08;20.13;;;;;;;2.61;100.00;102777.47;5042202;28;20053;-64
2022/01/12 11:28:09;;;;;;;42.28;20.40;;;;;;;2.57;100.00;102770.50;5045255;28;20041;-64
2022/01/12 11:30:42;;;;;;;49.83;20.98;;;;;;;2.60;100.00;102780.94;5042481;28;20083;-65
2022/01/12 11:33:10;;;;;;;49.53;21.42;;;;;;;2.57;100.00;102784.38;5044432;28;20049;-64
2022/01/12 11:35:43;;;;;;;47.53;20.95;;;;;;;2.57;100.00;102781.78;5046720;28;20049;-64
2022/01/12 11:38:27;;;;;;;47.00;22.73;;;;;;;2.54;100.00;102794.75;5047533;28;20128;-64
2022/01/12 11:40:56;;;;;;;52.70;22.35;;;;;;;2.47;100.00;102783.41;5042240;28;20068;-64
2022/01/12 11:43:29;;;;;;;53.28;21.73;;;;;;;2.51;100.00;102782.59;5039384;28;20061;-64
2022/01/12 11:46:05;;;;;;;52.70;22.70;;;;;;;2.53;100.00;102780.88;5047415;28;20049;-64
2022/01/12 11:48:33;;;;;;;;;;;;;;;2.57;100.00;102778.28;5010323;28;20056;-64
2022/01/12 11:51:00;;;;;;;46.10;21.60;;;;;;;2.60;100.00;102776.59;5035495;28;19932;-65
2022/01/12 11:53:30;;;;;;;51.67;23.38;;;;;;;2.58;100.00;102775.72;5046890;28;20143;-67
2022/01/12 11:56:18;;;;;;;50.80;23.35;;;;;;;2.64;100.00;102782.69;5043483;28;20067;-65
2022/01/12 11:58:50;;;;;;;55.58;23.83;;;;;;;2.51;100.00;102789.50;5029660;28;20569;-64
2022/01/12 12:01:18;;;;;;;50.50;23.25;;;;;;;2.53;100.00;102786.09;5029647;28;20049;-65
2022/01/12 12:03:59;;;;;;;56.30;23.98;;;;;;;2.46;100.00;102783.41;5041056;28;20110;-64
2022/01/12 12:06:27;;;;;;;57.05;26.42;;;;;;;2.44;100.00;102791.19;5041623;28;20049;-64
2022/01/12 12:09:06;;;;;;;59.08;25.65;;;;;;;2.42;100.00;102786.84;5040653;28;20061;-63
2022/01/12 12:11:33;;;;;;;62.05;26.35;;;;;;;2.33;100.00;102787.59;5050248;28;20098;-65
2022/01/12 12:14:04;;;;;;;62.65;25.90;;;;;;;2.31;100.00;102789.34;5050024;28;20110;-63
2022/01/12 12:16:33;;;;;;;63.50;27.73;;;;;;;2.30;100.00;102787.59;5045336;28;20391;-64
2022/01/12 12:19:04;;;;;;;61.55;27.00;;;;;;;2.31;100.00;102781.53;5045262;28;20061;-64